Time;durP1;ratioP1;P1;durP2;ratioP2;P2;SDS_P1;SDS_P2;PMS_P1;PMS_P2;Temp;Humidity;BMP_temperature;BMP_pressure;BME280_temperature;BME280_humidity;BME280_pressure;Samples;Min_cycle;Max_cycle;Signal;HPM_P1;HPM_P2
2022/09/17 00:00:17;;;;;;;2.57;1.47;;;10.90;90.90;;;;;;5046538;28;20442;-70
2022/09/17 00:02:46;;;;;;;1.80;1.33;;;10.90;90.90;;;;;;5049969;28;20431;-71
2022/09/17 00:05:12;;;;;;;3.03;1.30;;;11.00;91.10;;;;;;5048183;28;20207;-71
2022/09/17 00:07:37;;;;;;;1.90;1.10;;;10.90;91.00;;;;;;5044478;28;20415;-70
2022/09/17 00:10:04;;;;;;;1.67;1.40;;;10.90;90.80;;;;;;5047774;28;20280;-70
2022/09/17 00:12:32;;;;;;;2.00;1.57;;;10.90;91.00;;;;;;5042842;28;20291;-73
2022/09/17 00:14:58;;;;;;;4.10;1.43;;;11.00;90.70;;;;;;5044257;28;20482;-70
2022/09/17 00:17:23;;;;;;;3.70;1.40;;;10.90;90.50;;;;;;5039886;28;20512;-71
2022/09/17 00:19:49;;;;;;;3.10;1.47;;;11.00;90.40;;;;;;5041303;28;20216;-72
2022/09/17 00:22:15;;;;;;;1.60;1.10;;;11.00;90.40;;;;;;5040209;28;20259;-69
2022/09/17 00:24:41;;;;;;;2.67;1.80;;;11.00;90.30;;;;;;5042704;28;20638;-70
2022/09/17 00:27:06;;;;;;;1.40;1.10;;;11.00;89.90;;;;;;5043291;28;20326;-70
2022/09/17 00:29:32;;;;;;;2.00;1.47;;;11.00;89.90;;;;;;5040454;28;20244;-71
2022/09/17 00:31:58;;;;;;;4.50;1.60;;;11.00;89.60;;;;;;5040463;28;20678;-71
2022/09/17 00:34:23;;;;;;;1.60;1.47;;;11.00;89.60;;;;;;5039882;28;20205;-72
2022/09/17 00:36:49;;;;;;;2.73;1.70;;;11.00;89.60;;;;;;5040300;28;20184;-71
2022/09/17 00:39:15;;;;;;;3.03;1.70;;;11.00;89.90;;;;;;5041351;28;20185;-71
2022/09/17 00:41:41;;;;;;;3.40;1.60;;;11.00;89.50;;;;;;5046460;28;20185;-71
2022/09/17 00:44:44;;;;;;;5.13;1.70;;;11.00;89.60;;;;;;5040707;28;20448;-71
2022/09/17 00:47:22;;;;;;;2.30;1.30;;;11.00;89.60;;;;;;5046140;28;20466;-72
2022/09/17 00:49:51;;;;;;;2.90;1.57;;;11.00;89.90;;;;;;5041776;28;20477;-70
2022/09/17 00:52:22;;;;;;;1.80;1.50;;;11.00;89.60;;;;;;5044512;28;20419;-69
2022/09/17 00:54:55;;;;;;;3.63;1.97;;;11.00;89.90;;;;;;5039432;28;20459;-72
2022/09/17 00:57:21;;;;;;;2.20;1.50;;;11.00;90.10;;;;;;5040380;28;20442;-71
2022/09/17 00:59:47;;;;;;;2.33;1.60;;;11.00;90.30;;;;;;5039997;28;20942;-70
2022/09/17 01:02:12;;;;;;;3.50;2.07;;;11.00;90.20;;;;;;5041984;28;20196;-72
2022/09/17 01:04:38;;;;;;;2.97;1.73;;;10.90;90.40;;;;;;5034068;28;20467;-71
2022/09/17 01:07:20;;;;;;;3.27;2.30;;;10.90;90.50;;;;;;5040917;28;20578;-70
2022/09/17 01:10:11;;;;;;;2.10;1.63;;;10.90;90.50;;;;;;5039249;28;20177;-72
2022/09/17 01:12:49;;;;;;;2.30;1.37;;;10.80;90.60;;;;;;5005600;28;20442;-70
2022/09/17 01:15:29;;;;;;;3.40;1.60;;;10.80;90.80;;;;;;5038358;28;20486;-70
2022/09/17 01:18:30;;;;;;;3.47;1.67;;;10.70;90.80;;;;;;5046343;28;20415;-71
2022/09/17 01:21:11;;;;;;;3.40;1.90;;;10.70;90.80;;;;;;5029139;28;20436;-69
2022/09/17 01:23:58;;;;;;;2.77;1.60;;;10.60;91.10;;;;;;5040260;28;20780;-70
2022/09/17 01:26:39;;;;;;;2.80;1.90;;;10.60;91.30;;;;;;5038762;28;20886;-70
2022/09/17 01:29:45;;;;;;;2.90;1.90;;;10.50;91.20;;;;;;5038956;28;20410;-70
2022/09/17 01:32:23;;;;;;;3.20;1.60;;;10.50;91.20;;;;;;5040858;28;20517;-72
2022/09/17 01:35:02;;;;;;;3.17;1.67;;;10.60;91.30;;;;;;5043892;28;20450;-71
2022/09/17 01:37:52;;;;;;;3.10;1.73;;;10.60;91.30;;;;;;5043372;28;20427;-71
2022/09/17 01:40:23;;;;;;;3.30;1.87;;;10.60;91.00;;;;;;5040553;28;20906;-71
2022/09/17 01:43:11;;;;;;;2.17;1.83;;;10.60;91.20;;;;;;5047400;28;20872;-70
2022/09/17 01:46:10;;;;;;;2.53;1.57;;;10.70;91.20;;;;;;5042151;28;20472;-71
2022/09/17 01:48:43;;;;;;;2.87;1.80;;;10.70;90.80;;;;;;5037786;28;20431;-70
2022/09/17 01:51:13;;;;;;;3.30;2.00;;;10.60;90.80;;;;;;5036475;28;20407;-71
2022/09/17 01:53:57;;;;;;;3.00;2.07;;;10.70;90.80;;;;;;5036563;28;20467;-70
2022/09/17 01:56:28;;;;;;;6.23;2.20;;;10.70;90.90;;;;;;5046808;28;20835;-71
2022/09/17 01:59:07;;;;;;;3.40;1.57;;;10.60;91.00;;;;;;5039399;28;20866;-70
2022/09/17 02:01:36;;;;;;;3.30;1.93;;;10.70;90.90;;;;;;5043583;28;20430;-71
2022/09/17 02:04:08;;;;;;;3.43;1.90;;;10.70;91.00;;;;;;5039913;28;20419;-72
2022/09/17 02:06:39;;;;;;;5.00;1.70;;;10.80;90.60;;;;;;5043015;28;20467;-70
2022/09/17 02:09:16;;;;;;;4.33;2.00;;;10.80;90.30;;;;;;5040643;28;20450;-71
2022/09/17 02:11:48;;;;;;;4.03;1.90;;;10.90;90.10;;;;;;5043337;28;20934;-71
2022/09/17 02:14:20;;;;;;;3.70;2.17;;;10.80;89.90;;;;;;5038420;28;21740;-71
2022/09/17 02:16:50;;;;;;;7.20;2.30;;;10.80;90.00;;;;;;5043501;28;20944;-71
2022/09/17 02:19:26;;;;;;;5.67;2.17;;;10.80;90.10;;;;;;5039087;28;20446;-71
2022/09/17 02:22:01;;;;;;;6.70;2.27;;;10.80;90.00;;;;;;5046165;28;20450;-70
2022/09/17 02:24:43;;;;;;;3.03;2.00;;;10.80;90.20;;;;;;5039997;28;20924;-71
2022/09/17 02:27:50;;;;;;;3.77;2.00;;;10.80;90.30;;;;;;5038836;28;20487;-71
2022/09/17 02:30:16;;;;;;;10.07;3.10;;;10.80;90.30;;;;;;5029148;28;20505;-71
2022/09/17 02:32:41;;;;;;;5.40;1.90;;;10.90;90.10;;;;;;5038181;28;20496;-72
2022/09/17 02:35:09;;;;;;;5.30;2.00;;;10.80;89.90;;;;;;5043488;28;20552;-71
2022/09/17 02:37:35;;;;;;;12.53;2.70;;;10.90;90.00;;;;;;5039133;28;20424;-72
2022/09/17 02:40:02;;;;;;;3.00;2.33;;;10.80;90.10;;;;;;5041820;28;20995;-73
2022/09/17 02:42:58;;;;;;;3.70;2.40;;;10.80;90.30;;;;;;5037478;28;20433;-71
2022/09/17 02:45:48;;;;;;;3.80;1.90;;;10.80;90.10;;;;;;5039237;28;20712;-71
2022/09/17 02:48:28;;;;;;;7.93;2.20;;;10.80;90.10;;;;;;5040398;28;20423;-71
2022/09/17 02:51:41;;;;;;;3.37;1.73;;;10.80;90.10;;;;;;5037713;28;20464;-71
2022/09/17 02:54:35;;;;;;;5.37;2.30;;;10.70;90.10;;;;;;4960900;28;20480;-72
2022/09/17 02:57:36;;;;;;;4.73;2.40;;;10.70;90.30;;;;;;4958759;28;20435;-69
2022/09/17 03:00:15;;;;;;;7.07;2.17;;;10.60;90.50;;;;;;4948342;28;20449;-70
2022/09/17 03:02:55;;;;;;;4.13;2.37;;;10.60;90.80;;;;;;4966973;28;20426;-71
2022/09/17 03:05:22;;;;;;;5.37;2.70;;;10.60;90.80;;;;;;4963194;28;20474;-70
2022/09/17 03:07:47;;;;;;;3.83;1.93;;;10.60;90.60;;;;;;4969493;28;20877;-71
2022/09/17 03:10:14;;;;;;;4.80;1.87;;;10.50;90.70;;;;;;4958139;28;20550;-70
2022/09/17 03:12:40;;;;;;;3.77;2.00;;;10.50;91.00;;;;;;4963075;28;20655;-72
2022/09/17 03:15:06;;;;;;;5.13;2.30;;;10.40;91.00;;;;;;4965376;28;20474;-71
2022/09/17 03:17:32;;;;;;;4.43;2.43;;;10.30;91.20;;;;;;4962842;28;20651;-71
2022/09/17 03:19:57;;;;;;;5.03;2.50;;;10.30;91.30;;;;;;4957318;28;20550;-71
2022/09/17 03:22:23;;;;;;;3.53;2.33;;;10.30;91.40;;;;;;4963440;28;20196;-71
2022/09/17 03:24:49;;;;;;;6.50;2.30;;;10.30;91.40;;;;;;5001779;28;20227;-70
2022/09/17 03:27:15;;;;;;;6.87;2.10;;;10.20;91.50;;;;;;5043127;28;20961;-71
2022/09/17 03:29:40;;;;;;;6.30;2.40;;;10.20;91.80;;;;;;5040429;28;20620;-71
2022/09/17 03:32:07;;;;;;;8.60;2.10;;;10.20;91.60;;;;;;5043709;28;20425;-72
2022/09/17 03:34:33;;;;;;;9.93;2.70;;;10.20;91.60;;;;;;5038947;28;20235;-71
2022/09/17 03:36:58;;;;;;;6.80;2.40;;;10.20;91.60;;;;;;5042673;28;20930;-72
2022/09/17 03:39:24;;;;;;;4.97;2.43;;;10.20;91.60;;;;;;5041605;28;20272;-72
2022/09/17 03:41:50;;;;;;;9.70;2.00;;;10.20;91.60;;;;;;5041924;28;20204;-71
2022/09/17 03:44:18;;;;;;;7.10;2.80;;;10.30;91.40;;;;;;5046240;28;20721;-71
2022/09/17 03:46:44;;;;;;;3.87;1.70;;;10.30;91.30;;;;;;5040824;28;20471;-71
2022/09/17 03:49:09;;;;;;;4.90;2.40;;;10.30;91.10;;;;;;5047272;28;20415;-72
2022/09/17 03:51:35;;;;;;;8.57;2.30;;;10.30;91.20;;;;;;5041171;28;20177;-70
2022/09/17 03:54:01;;;;;;;5.40;2.00;;;10.20;91.10;;;;;;5045683;28;20214;-72
2022/09/17 03:56:27;;;;;;;4.13;2.17;;;10.10;91.40;;;;;;5045809;28;20209;-72
2022/09/17 03:58:59;;;;;;;6.10;2.37;;;10.10;91.30;;;;;;5047992;28;20895;-70
2022/09/17 04:01:26;;;;;;;9.73;2.00;;;10.10;91.30;;;;;;5043322;28;20181;-71
2022/09/17 04:03:52;;;;;;;7.00;2.63;;;10.10;91.20;;;;;;5050890;28;20418;-70
2022/09/17 04:06:17;;;;;;;8.23;2.43;;;10.10;91.30;;;;;;5043297;28;20471;-68
2022/09/17 04:08:43;;;;;;;4.63;2.00;;;10.10;91.40;;;;;;5048586;28;20484;-71
2022/09/17 04:11:09;;;;;;;4.80;2.30;;;10.10;91.30;;;;;;5040891;28;20181;-71
2022/09/17 04:13:35;;;;;;;5.90;2.03;;;10.00;91.30;;;;;;5046992;28;20693;-72
2022/09/17 04:16:01;;;;;;;6.47;2.07;;;10.00;91.40;;;;;;5043219;28;20474;-70
2022/09/17 04:18:26;;;;;;;6.00;2.00;;;10.00;91.60;;;;;;5043680;28;20209;-71
2022/09/17 04:20:52;;;;;;;3.23;2.10;;;10.00;91.60;;;;;;5037149;28;20517;-70
2022/09/17 04:23:18;;;;;;;4.00;3.30;;;10.00;91.40;;;;;;5043944;28;20561;-70
2022/09/17 04:25:44;;;;;;;4.17;2.20;;;9.90;91.30;;;;;;5038203;28;20313;-71
2022/09/17 04:28:10;;;;;;;8.77;2.50;;;9.90;91.20;;;;;;5043492;28;21125;-70
2022/09/17 04:30:35;;;;;;;2.43;1.93;;;10.00;91.00;;;;;;5042166;28;20796;-70
2022/09/17 04:33:02;;;;;;;4.03;2.07;;;10.10;90.90;;;;;;5044187;28;20427;-70
2022/09/17 04:35:28;;;;;;;9.87;2.50;;;10.10;90.70;;;;;;5043913;28;20212;-71
2022/09/17 04:37:55;;;;;;;4.40;2.13;;;10.00;90.40;;;;;;5045150;28;20427;-70
2022/09/17 04:40:22;;;;;;;4.93;2.30;;;10.00;90.70;;;;;;5044005;28;20427;-70
2022/09/17 04:42:50;;;;;;;6.10;2.13;;;10.00;90.60;;;;;;5045291;28;20918;-69
2022/09/17 04:45:16;;;;;;;8.03;3.00;;;10.00;90.30;;;;;;5043401;28;20490;-68
2022/09/17 04:47:41;;;;;;;5.13;2.70;;;10.00;90.30;;;;;;5045328;28;20910;-70
2022/09/17 04:50:07;;;;;;;7.10;2.20;;;10.10;90.20;;;;;;5042995;28;20609;-70
2022/09/17 04:52:33;;;;;;;4.03;2.30;;;10.10;90.10;;;;;;5045953;28;20410;-69
2022/09/17 04:54:58;;;;;;;6.77;2.70;;;10.20;89.90;;;;;;5041452;28;20581;-70
2022/09/17 04:57:24;;;;;;;4.87;2.43;;;10.20;89.20;;;;;;5045432;28;20275;-71
2022/09/17 04:59:50;;;;;;;7.00;2.57;;;10.10;89.20;;;;;;5040709;28;20217;-68
2022/09/17 05:02:16;;;;;;;4.20;2.57;;;10.10;89.50;;;;;;5043476;28;20211;-69
2022/09/17 05:04:42;;;;;;;5.80;2.20;;;10.10;89.50;;;;;;5043124;28;20993;-70
2022/09/17 05:07:08;;;;;;;4.33;2.83;;;10.10;89.30;;;;;;5041470;28;20208;-70
2022/09/17 05:09:33;;;;;;;3.73;2.40;;;10.20;89.30;;;;;;5041308;28;20424;-69
2022/09/17 05:11:59;;;;;;;12.13;3.70;;;10.20;89.00;;;;;;5034794;28;20188;-70
2022/09/17 05:14:24;;;;;;;4.90;2.90;;;10.10;88.70;;;;;;5039959;28;20620;-69
2022/09/17 05:16:50;;;;;;;6.20;2.47;;;10.20;88.70;;;;;;5039143;28;20192;-70
2022/09/17 05:19:15;;;;;;;8.80;2.53;;;10.30;88.60;;;;;;5044312;28;20201;-71
2022/09/17 05:21:41;;;;;;;6.53;2.90;;;10.20;88.60;;;;;;5036135;28;20185;-69
2022/09/17 05:24:06;;;;;;;4.93;2.43;;;10.20;88.70;;;;;;5041755;28;20275;-69
2022/09/17 05:26:32;;;;;;;5.93;2.50;;;10.20;88.90;;;;;;5036402;28;20246;-70
2022/09/17 05:28:58;;;;;;;4.53;2.53;;;10.20;88.70;;;;;;5042513;28;20177;-68
2022/09/17 05:31:24;;;;;;;7.43;2.37;;;10.20;89.20;;;;;;5040308;28;20292;-69
2022/09/17 05:33:50;;;;;;;3.30;2.33;;;10.20;89.20;;;;;;5041867;28;20542;-68
2022/09/17 05:36:15;;;;;;;7.07;2.53;;;10.10;89.30;;;;;;5040683;28;20196;-69
2022/09/17 05:38:41;;;;;;;10.57;3.40;;;10.10;89.60;;;;;;5041495;28;20187;-69
2022/09/17 05:41:07;;;;;;;4.23;2.37;;;10.10;89.50;;;;;;5040763;28;20715;-70
2022/09/17 05:43:33;;;;;;;10.23;2.30;;;10.10;89.50;;;;;;5043186;28;20424;-68
2022/09/17 05:46:03;;;;;;;7.53;2.90;;;10.00;89.60;;;;;;5046531;28;20223;-69
2022/09/17 05:48:29;;;;;;;5.43;2.30;;;10.00;89.90;;;;;;5042762;28;20465;-69
2022/09/17 05:50:55;;;;;;;6.87;2.77;;;10.00;90.00;;;;;;5039508;28;20424;-69
2022/09/17 05:53:20;;;;;;;9.07;2.80;;;10.00;90.00;;;;;;5038844;28;20568;-69
2022/09/17 05:55:46;;;;;;;5.17;2.77;;;10.00;90.00;;;;;;5040305;28;20231;-72
2022/09/17 05:58:17;;;;;;;6.43;2.40;;;10.00;90.00;;;;;;5038679;28;20200;-68
2022/09/17 06:00:45;;;;;;;4.43;3.37;;;10.00;90.00;;;;;;5037807;28;20724;-72
2022/09/17 06:03:12;;;;;;;8.27;2.97;;;10.10;90.00;;;;;;5037276;28;20416;-71
2022/09/17 06:05:37;;;;;;;6.70;2.37;;;10.10;90.00;;;;;;5041957;28;20538;-70
2022/09/17 06:08:04;;;;;;;6.07;2.70;;;10.10;89.70;;;;;;5036205;28;20431;-71
2022/09/17 06:10:30;;;;;;;11.13;3.00;;;10.20;89.70;;;;;;5042881;28;20208;-70
2022/09/17 06:13:06;;;;;;;5.10;3.03;;;10.20;89.30;;;;;;5037318;28;20456;-70
2022/09/17 06:15:31;;;;;;;7.13;2.70;;;10.20;89.70;;;;;;5043641;28;20463;-70
2022/09/17 06:17:57;;;;;;;6.23;3.50;;;10.20;89.60;;;;;;5038811;28;20828;-69
2022/09/17 06:20:22;;;;;;;6.70;3.00;;;10.30;89.70;;;;;;5043694;28;20250;-69
2022/09/17 06:22:48;;;;;;;4.70;3.10;;;10.30;89.50;;;;;;5038348;28;20188;-69
2022/09/17 06:25:14;;;;;;;6.97;3.40;;;10.30;88.60;;;;;;5045006;28;20204;-71
2022/09/17 06:27:39;;;;;;;12.50;3.50;;;10.40;88.60;;;;;;5038298;28;20209;-71
2022/09/17 06:30:06;;;;;;;7.90;3.50;;;10.40;88.30;;;;;;5043011;28;20471;-70
2022/09/17 06:32:32;;;;;;;5.20;3.00;;;10.40;88.40;;;;;;5043384;28;20592;-70
2022/09/17 06:34:57;;;;;;;6.80;3.50;;;10.50;88.40;;;;;;5042691;28;20545;-72
2022/09/17 06:37:31;;;;;;;7.47;3.10;;;10.70;88.10;;;;;;5043087;28;20254;-71
2022/09/17 06:39:58;;;;;;;9.23;3.20;;;10.80;87.10;;;;;;5039236;28;20200;-73
2022/09/17 06:42:24;;;;;;;11.50;4.07;;;10.70;86.80;;;;;;5036405;28;20481;-73
2022/09/17 06:44:49;;;;;;;4.43;3.20;;;10.70;86.50;;;;;;5040792;28;20477;-73
2022/09/17 06:47:15;;;;;;;8.53;3.47;;;10.60;86.00;;;;;;5049027;28;20474;-72
2022/09/17 06:49:40;;;;;;;4.60;3.43;;;10.50;86.80;;;;;;5036432;28;20287;-71
2022/09/17 06:52:06;;;;;;;6.77;3.00;;;10.70;86.60;;;;;;5044118;28;20176;-72
2022/09/17 06:54:32;;;;;;;8.63;3.37;;;10.90;86.60;;;;;;5039837;28;20211;-74
2022/09/17 06:56:57;;;;;;;8.20;3.23;;;11.00;85.60;;;;;;5042779;28;20228;-71
2022/09/17 06:59:24;;;;;;;4.77;2.87;;;11.00;84.90;;;;;;5037150;28;20189;-71
2022/09/17 07:01:49;;;;;;;4.07;3.10;;;11.00;85.20;;;;;;5041753;28;20296;-72
2022/09/17 07:04:17;;;;;;;11.30;3.13;;;10.90;85.00;;;;;;5036793;28;20462;-69
2022/09/17 07:06:43;;;;;;;4.37;3.00;;;11.00;84.90;;;;;;5043954;28;20209;-70
2022/09/17 07:09:09;;;;;;;5.70;3.17;;;11.00;85.00;;;;;;5038140;28;20545;-71
2022/09/17 07:11:35;;;;;;;7.63;2.87;;;10.90;84.90;;;;;;5039462;28;20977;-71
2022/09/17 07:14:01;;;;;;;5.60;3.43;;;10.90;85.30;;;;;;5037480;28;20427;-71
2022/09/17 07:16:26;;;;;;;6.07;2.90;;;10.80;86.50;;;;;;5041830;28;20199;-72
2022/09/17 07:18:52;;;;;;;10.90;3.40;;;10.80;87.40;;;;;;5040878;28;20670;-70
2022/09/17 07:21:18;;;;;;;4.63;2.87;;;10.80;88.40;;;;;;5046777;28;20510;-73
2022/09/17 07:23:44;;;;;;;5.80;3.60;;;10.60;88.70;;;;;;5045569;28;20196;-70
2022/09/17 07:26:14;;;;;;;6.93;3.47;;;10.50;89.90;;;;;;5040549;28;20216;-71
2022/09/17 07:28:41;;;;;;;6.53;3.70;;;10.40;90.80;;;;;;5042029;28;20427;-74
2022/09/17 07:31:07;;;;;;;12.20;5.10;;;10.30;91.50;;;;;;5045766;28;20957;-75
2022/09/17 07:33:34;;;;;;;8.17;5.10;;;10.30;92.50;;;;;;5047916;28;20419;-76
2022/09/17 07:36:02;;;;;;;10.77;4.50;;;10.20;92.80;;;;;;5039166;28;20477;-73
2022/09/17 07:38:29;;;;;;;6.33;3.87;;;10.10;93.10;;;;;;5038213;28;20502;-74
2022/09/17 07:41:03;;;;;;;10.73;4.50;;;10.10;93.40;;;;;;5041145;28;20488;-73
2022/09/17 07:43:31;;;;;;;9.80;4.70;;;10.10;93.60;;;;;;5038058;28;20415;-73
2022/09/17 07:45:59;;;;;;;7.30;4.10;;;10.10;94.00;;;;;;5033693;28;20467;-75
2022/09/17 07:48:25;;;;;;;5.80;3.90;;;10.30;94.30;;;;;;5044691;28;20427;-74
2022/09/17 07:50:51;;;;;;;5.20;3.80;;;10.30;94.30;;;;;;5047485;28;20419;-75
2022/09/17 07:53:17;;;;;;;10.03;4.70;;;10.20;94.00;;;;;;5044206;28;20468;-74
2022/09/17 07:55:59;;;;;;;16.83;6.93;;;10.10;94.10;;;;;;5034821;28;20215;-74
2022/09/17 07:58:30;;;;;;;11.13;4.50;;;9.90;94.30;;;;;;5039451;28;20178;-72
2022/09/17 08:01:05;;;;;;;9.07;4.80;;;9.90;94.30;;;;;;5039872;28;20779;-73
2022/09/17 08:03:31;;;;;;;5.83;3.73;;;9.90;94.40;;;;;;5041971;28;20434;-73
2022/09/17 08:06:04;;;;;;;6.87;3.80;;;10.00;94.40;;;;;;5042185;28;20475;-76
2022/09/17 08:08:32;;;;;;;6.07;3.37;;;10.10;94.20;;;;;;5040010;28;20204;-74
2022/09/17 08:11:06;;;;;;;3.47;2.80;;;10.20;93.90;;;;;;5046750;28;20527;-72
2022/09/17 08:13:32;;;;;;;4.47;3.10;;;10.10;93.40;;;;;;5035217;28;20426;-74
2022/09/17 08:16:07;;;;;;;6.93;3.03;;;10.10;93.20;;;;;;5046770;28;20546;-74
2022/09/17 08:18:34;;;;;;;4.93;3.07;;;10.10;93.50;;;;;;5040430;28;20933;-75
2022/09/17 08:21:01;;;;;;;8.10;3.87;;;10.20;93.70;;;;;;5040622;28;20472;-74
2022/09/17 08:23:28;;;;;;;7.13;3.37;;;10.30;93.40;;;;;;5040999;28;20430;-77
2022/09/17 08:25:58;;;;;;;8.23;3.17;;;10.30;93.40;;;;;;5040635;28;21177;-74
2022/09/17 08:28:25;;;;;;;7.23;3.07;;;10.50;93.40;;;;;;5043179;28;20431;-74
2022/09/17 08:30:51;;;;;;;12.27;3.80;;;10.50;92.00;;;;;;5037331;28;20436;-73
2022/09/17 08:33:17;;;;;;;4.90;3.33;;;10.60;91.50;;;;;;5044361;28;20415;-74
2022/09/17 08:35:54;;;;;;;12.73;5.80;;;10.80;91.80;;;;;;5037657;28;20559;-72
2022/09/17 08:38:20;;;;;;;13.53;4.00;;;10.90;91.40;;;;;;5043683;28;20823;-74
2022/09/17 08:41:06;;;;;;;6.10;3.57;;;10.90;90.50;;;;;;5037063;28;20502;-73
2022/09/17 08:43:58;;;;;;;6.47;4.33;;;10.90;90.70;;;;;;5037885;28;20563;-73
2022/09/17 08:46:25;;;;;;;5.63;3.10;;;11.00;91.10;;;;;;5045747;28;21059;-74
2022/09/17 08:49:13;;;;;;;6.47;3.30;;;11.10;90.90;;;;;;5039532;28;20868;-72
2022/09/17 08:52:01;;;;;;;8.70;4.47;;;11.10;90.50;;;;;;5043548;28;20424;-73
2022/09/17 08:54:41;;;;;;;20.53;4.70;;;11.30;90.30;;;;;;5039440;28;20542;-73
2022/09/17 08:57:16;;;;;;;11.37;3.73;;;11.30;90.20;;;;;;5039785;28;20770;-72
2022/09/17 09:00:08;;;;;;;13.23;4.03;;;11.40;90.20;;;;;;5038427;28;20432;-73
2022/09/17 09:02:46;;;;;;;6.63;3.30;;;11.40;88.30;;;;;;5036711;28;20431;-73
2022/09/17 09:05:19;;;;;;;7.07;3.60;;;11.20;87.40;;;;;;5040314;28;20451;-74
2022/09/17 09:07:57;;;;;;;6.27;3.07;;;11.60;88.60;;;;;;5041187;28;20537;-74
2022/09/17 09:10:30;;;;;;;11.67;3.30;;;11.70;87.40;;;;;;5038841;28;20419;-74
2022/09/17 09:12:59;;;;;;;7.97;2.80;;;11.70;87.40;;;;;;5039904;28;20423;-74
2022/09/17 09:16:02;;;;;;;7.97;3.30;;;11.70;86.90;;;;;;5038615;28;20482;-74
2022/09/17 09:18:29;;;;;;;13.60;3.47;;;11.90;86.80;;;;;;4969077;28;20540;-74
2022/09/17 09:21:39;;;;;;;6.40;3.30;;;11.90;86.80;;;;;;4967455;28;20471;-75
2022/09/17 09:24:21;;;;;;;9.90;3.73;;;11.90;86.00;;;;;;4943807;28;20434;-74
2022/09/17 09:27:00;;;;;;;10.30;3.90;;;11.80;86.50;;;;;;4967495;28;20477;-75
2022/09/17 09:29:28;;;;;;;7.20;3.73;;;11.90;87.00;;;;;;4970112;28;20429;-75
2022/09/17 09:32:34;;;;;;;15.87;5.07;;;12.00;85.90;;;;;;4968038;28;20980;-75
2022/09/17 09:35:11;;;;;;;10.90;5.47;;;12.10;84.10;;;;;;4949469;28;20474;-74
2022/09/17 09:37:41;;;;;;;5.50;3.23;;;12.10;83.60;;;;;;4950603;28;20461;-74
2022/09/17 09:40:26;;;;;;;12.07;4.57;;;12.00;83.10;;;;;;4970280;28;20505;-75
2022/09/17 09:42:54;;;;;;;9.73;4.00;;;12.00;82.80;;;;;;4969581;28;20525;-74
2022/09/17 09:45:53;;;;;;;10.60;4.03;;;11.90;83.10;;;;;;4966247;28;20549;-74
2022/09/17 09:48:37;;;;;;;9.50;4.07;;;11.80;83.80;;;;;;4971693;28;20468;-74
2022/09/17 09:51:16;;;;;;;8.73;4.00;;;11.80;84.40;;;;;;4972940;28;20493;-74
2022/09/17 09:53:51;;;;;;;10.03;3.57;;;12.10;84.10;;;;;;5044969;28;20420;-75
2022/09/17 09:56:25;;;;;;;11.70;3.97;;;12.20;83.40;;;;;;5041504;28;20542;-74
2022/09/17 09:58:51;;;;;;;13.50;3.90;;;12.00;83.60;;;;;;5043579;28;21185;-73
2022/09/17 10:01:21;;;;;;;10.03;3.37;;;12.00;84.00;;;;;;5036527;28;20418;-74
2022/09/17 10:03:50;;;;;;;12.50;4.13;;;11.90;82.80;;;;;;5040639;28;20181;-74
2022/09/17 10:06:16;;;;;;;11.93;4.00;;;12.00;83.00;;;;;;5047185;28;20478;-75
2022/09/17 10:09:02;;;;;;;10.70;3.40;;;12.00;83.60;;;;;;5045239;28;20477;-74
2022/09/17 10:11:32;;;;;;;8.40;4.03;;;12.20;82.70;;;;;;5033854;28;20521;-74
2022/09/17 10:14:24;;;;;;;8.70;3.50;;;12.40;82.20;;;;;;5043830;28;20447;-74
2022/09/17 10:17:09;;;;;;;7.83;3.80;;;12.50;81.20;;;;;;5046452;28;21082;-75
2022/09/17 10:19:35;;;;;;;6.43;3.57;;;12.40;80.60;;;;;;5035409;28;20861;-73
2022/09/17 10:22:18;;;;;;;6.83;3.43;;;12.50;81.70;;;;;;5043652;28;20427;-74
2022/09/17 10:24:45;;;;;;;8.43;3.37;;;12.70;79.00;;;;;;5041450;28;20857;-75
2022/09/17 10:27:17;;;;;;;5.67;3.53;;;12.70;79.00;;;;;;5041183;28;20473;-75
2022/09/17 10:29:44;;;;;;;9.03;3.70;;;12.90;78.40;;;;;;5043182;28;20449;-75
2022/09/17 10:32:21;;;;;;;7.10;3.10;;;13.20;76.40;;;;;;5041082;28;20421;-74
2022/09/17 10:35:06;;;;;;;10.83;3.50;;;13.30;73.90;;;;;;5037427;28;20451;-74
2022/09/17 10:37:47;;;;;;;13.53;3.70;;;13.50;73.60;;;;;;5036435;28;21014;-74
2022/09/17 10:40:18;;;;;;;11.00;3.30;;;13.70;73.70;;;;;;5037101;28;20415;-75
2022/09/17 10:42:48;;;;;;;5.57;2.80;;;13.90;72.90;;;;;;5037057;28;20439;-75
2022/09/17 10:45:28;;;;;;;3.50;2.37;;;14.10;71.10;;;;;;5035281;28;20525;-73
2022/09/17 10:47:56;;;;;;;7.10;3.33;;;14.00;71.10;;;;;;5036279;28;20537;-74
2022/09/17 10:50:28;;;;;;;8.30;2.90;;;14.20;71.80;;;;;;5040469;28;20443;-74
2022/09/17 10:52:56;;;;;;;6.03;3.23;;;14.70;71.00;;;;;;5045179;28;20428;-72
2022/09/17 10:55:33;;;;;;;8.23;2.97;;;14.60;69.90;;;;;;5044726;28;20462;-71
2022/09/17 10:58:19;;;;;;;5.77;2.93;;;14.30;71.00;;;;;;5044861;28;20438;-71
2022/09/17 11:00:51;;;;;;;5.50;2.47;;;14.10;69.90;;;;;;5032717;28;20419;-73
2022/09/17 11:03:19;;;;;;;7.00;2.80;;;14.40;69.80;;;;;;5040751;28;20477;-72
2022/09/17 11:06:22;;;;;;;6.90;2.57;;;14.70;69.90;;;;;;5042202;28;20459;-71
2022/09/17 11:09:08;;;;;;;4.63;2.20;;;15.00;67.70;;;;;;5040323;28;20952;-72
2022/09/17 11:11:46;;;;;;;4.43;2.60;;;14.80;66.30;;;;;;5040906;28;20514;-72
2022/09/17 11:14:36;;;;;;;5.00;2.60;;;14.70;68.00;;;;;;5034316;28;20918;-72
2022/09/17 11:17:38;;;;;;;4.03;2.20;;;15.00;67.50;;;;;;5042709;28;20419;-72
2022/09/17 11:20:12;;;;;;;4.50;2.70;;;14.90;67.70;;;;;;5043167;28;20493;-73
2022/09/17 11:23:37;;;;;;;4.20;2.40;;;15.10;68.00;;;;;;5039737;28;20899;-70
2022/09/17 11:26:12;;;;;;;5.90;2.17;;;15.40;67.50;;;;;;4964727;28;20481;-72
2022/09/17 11:28:55;;;;;;;10.93;2.40;;;15.00;67.20;;;;;;5042391;28;20419;-72
2022/09/17 11:31:32;;;;;;;9.40;2.43;;;14.90;66.00;;;;;;5043940;28;20416;-72
2022/09/17 11:34:23;;;;;;;8.07;4.43;;;14.90;66.30;;;;;;5046044;28;20480;-70
2022/09/17 11:37:08;;;;;;;8.80;2.00;;;14.60;67.00;;;;;;5043993;28;20444;-71
2022/09/17 11:39:33;;;;;;;4.53;2.10;;;14.60;65.30;;;;;;5049508;28;20427;-72
2022/09/17 11:42:03;;;;;;;3.60;2.40;;;14.50;65.80;;;;;;5055841;28;20508;-71
2022/09/17 11:44:42;;;;;;;4.53;2.20;;;14.80;66.60;;;;;;5054176;28;20286;-72
2022/09/17 11:47:21;;;;;;;5.40;2.47;;;15.10;65.30;;;;;;5040650;28;20461;-71
2022/09/17 11:49:55;;;;;;;2.67;1.90;;;15.10;64.50;;;;;;5047435;28;20419;-71
2022/09/17 11:52:27;;;;;;;6.87;2.00;;;15.10;65.30;;;;;;5046222;28;20783;-71
2022/09/17 11:55:14;;;;;;;7.43;2.50;;;15.20;64.40;;;;;;5045245;28;20461;-72
2022/09/17 11:57:41;;;;;;;3.87;2.03;;;15.50;63.80;;;;;;5039957;28;20435;-71
2022/09/17 12:00:19;;;;;;;5.60;2.23;;;15.70;62.20;;;;;;5042234;28;20473;-72
2022/09/17 12:02:55;;;;;;;10.97;3.60;;;15.80;62.30;;;;;;5040761;28;20428;-72
2022/09/17 12:05:20;;;;;;;11.20;3.70;;;15.50;62.90;;;;;;5041626;28;20486;-72
2022/09/17 12:07:56;;;;;;;5.60;3.03;;;15.10;63.70;;;;;;5044977;28;21020;-72
2022/09/17 12:10:31;;;;;;;5.10;2.50;;;15.30;63.70;;;;;;5041148;28;20239;-71
2022/09/17 12:13:12;;;;;;;8.00;2.40;;;15.60;63.10;;;;;;5046652;28;20447;-71
2022/09/17 12:15:41;;;;;;;4.50;2.57;;;15.00;63.90;;;;;;5038557;28;20515;-71
2022/09/17 12:18:37;;;;;;;5.37;2.40;;;14.50;67.30;;;;;;5043747;28;20734;-71
2022/09/17 12:21:07;;;;;;;5.77;2.77;;;14.20;71.80;;;;;;5049300;28;20415;-71
2022/09/17 12:24:02;;;;;;;5.23;3.17;;;13.60;73.90;;;;;;5042785;28;20482;-71
2022/09/17 12:27:02;;;;;;;7.80;2.37;;;13.30;76.10;;;;;;5043333;28;20500;-71
2022/09/17 12:29:33;;;;;;;4.43;2.53;;;13.10;76.40;;;;;;5049959;28;20424;-70
2022/09/17 12:32:32;;;;;;;4.90;2.00;;;13.00;77.30;;;;;;5047237;28;20423;-69
2022/09/17 12:35:15;;;;;;;4.80;1.90;;;12.80;77.10;;;;;;5040400;28;20458;-70
2022/09/17 12:37:59;;;;;;;6.20;2.13;;;13.00;77.40;;;;;;5046591;28;20415;-69
2022/09/17 12:41:02;;;;;;;6.80;2.50;;;13.40;76.20;;;;;;5044131;28;20424;-69
2022/09/17 12:44:05;;;;;;;3.87;2.23;;;13.90;75.10;;;;;;5035055;28;20408;-69
2022/09/17 12:46:58;;;;;;;3.37;2.20;;;14.20;73.30;;;;;;4969382;28;20525;-70
2022/09/17 12:49:39;;;;;;;4.27;2.30;;;14.10;71.80;;;;;;4969111;28;20419;-70
2022/09/17 12:52:24;;;;;;;4.80;1.90;;;13.80;74.20;;;;;;4974054;28;20439;-71
2022/09/17 12:55:04;;;;;;;4.10;1.70;;;13.50;76.10;;;;;;4968079;28;20502;-70
2022/09/17 12:58:00;;;;;;;5.53;1.90;;;13.00;77.30;;;;;;4969889;28;20410;-69
2022/09/17 13:00:26;;;;;;;5.77;1.83;;;12.70;78.00;;;;;;4966503;28;20422;-68
2022/09/17 13:03:06;;;;;;;4.30;2.47;;;12.70;79.90;;;;;;4981046;28;20867;-69
2022/09/17 13:05:53;;;;;;;3.87;2.33;;;12.60;80.00;;;;;;4967767;28;20564;-69
2022/09/17 13:08:34;;;;;;;2.80;1.67;;;12.60;79.90;;;;;;4979545;28;20516;-69
2022/09/17 13:11:31;;;;;;;4.40;2.00;;;12.60;80.50;;;;;;4970051;28;20525;-70
2022/09/17 13:14:03;;;;;;;2.00;1.40;;;12.40;81.70;;;;;;4964038;28;20472;-70
2022/09/17 13:16:32;;;;;;;4.43;1.90;;;11.90;84.60;;;;;;4969137;28;20449;-69